Time;durP1;ratioP1;P1;durP2;ratioP2;P2;SDS_P1;SDS_P2;PMS_P1;PMS_P2;Temp;Humidity;BMP_temperature;BMP_pressure;BME280_temperature;BME280_humidity;BME280_pressure;Samples;Min_cycle;Max_cycle;Signal;HPM_P1;HPM_P2
2022/07/29 00:00:38;;;;;;;2.30;1.33;;;13.50;99.90;;;;;;5104706;28;20694;-44
2022/07/29 00:03:04;;;;;;;1.17;0.90;;;13.50;99.90;;;;;;5100350;27;20208;-45
2022/07/29 00:05:32;;;;;;;4.70;1.57;;;13.50;99.90;;;;;;5104328;28;20204;-43
2022/07/29 00:07:59;;;;;;;1.37;1.10;;;13.40;99.90;;;;;;5108151;27;20217;-44
2022/07/29 00:10:27;;;;;;;2.90;1.20;;;13.40;99.90;;;;;;5097333;27;20197;-47
2022/07/29 00:12:54;;;;;;;2.70;1.30;;;13.40;99.90;;;;;;5105665;27;20197;-47
2022/07/29 00:15:21;;;;;;;3.00;1.00;;;13.30;99.90;;;;;;5110636;27;20920;-44
2022/07/29 00:17:48;;;;;;;3.53;1.30;;;13.30;99.90;;;;;;5105924;27;20308;-45
2022/07/29 00:20:14;;;;;;;1.67;1.10;;;13.30;99.90;;;;;;5101352;27;20244;-44
2022/07/29 00:22:41;;;;;;;2.77;0.83;;;13.30;99.90;;;;;;5104457;27;20567;-44
2022/07/29 00:25:09;;;;;;;2.30;1.10;;;13.20;99.90;;;;;;5089567;27;20193;-43
2022/07/29 00:27:37;;;;;;;2.57;1.53;;;13.20;99.90;;;;;;5110793;27;20296;-44
2022/07/29 00:30:06;;;;;;;3.37;1.40;;;13.20;99.90;;;;;;5100535;28;20197;-43
2022/07/29 00:32:32;;;;;;;2.53;1.20;;;13.10;99.90;;;;;;5104367;27;20205;-44
2022/07/29 00:37:44;;;;;;;3.33;1.20;;;13.10;99.90;;;;;;5111357;27;20213;-45
2022/07/29 00:40:11;;;;;;;1.43;1.33;;;13.10;99.90;;;;;;5092796;27;20802;-44
2022/07/29 00:42:47;;;;;;;2.27;1.33;;;13.10;99.90;;;;;;5116058;27;20672;-44
2022/07/29 00:45:15;;;;;;;2.40;1.20;;;13.10;99.90;;;;;;5106740;27;20181;-50
2022/07/29 00:47:42;;;;;;;1.50;1.30;;;13.00;99.90;;;;;;5110858;27;20709;-44
2022/07/29 00:50:11;;;;;;;1.00;0.90;;;13.00;99.90;;;;;;5104926;27;20192;-44
2022/07/29 00:52:39;;;;;;;3.23;1.30;;;13.00;99.90;;;;;;5123501;27;20200;-45
2022/07/29 00:55:08;;;;;;;1.67;1.10;;;13.00;99.90;;;;;;5104105;27;20263;-45
2022/07/29 00:57:36;;;;;;;1.30;1.20;;;12.90;99.90;;;;;;5110670;28;20228;-47
2022/07/29 01:00:07;;;;;;;1.80;1.50;;;12.90;99.90;;;;;;5100405;28;20213;-47
2022/07/29 01:02:34;;;;;;;1.40;1.30;;;12.90;99.90;;;;;;5103667;28;20565;-45
2022/07/29 01:05:01;;;;;;;1.30;1.20;;;12.90;99.90;;;;;;5100071;28;20243;-45
2022/07/29 01:07:30;;;;;;;4.10;1.43;;;12.90;99.90;;;;;;5110162;28;20240;-44
2022/07/29 01:09:58;;;;;;;2.70;1.43;;;12.80;99.90;;;;;;5112315;28;20238;-44
2022/07/29 01:12:27;;;;;;;2.60;0.97;;;12.80;99.90;;;;;;5096060;28;20209;-45
2022/07/29 01:14:56;;;;;;;2.10;1.90;;;12.80;99.90;;;;;;5113282;28;20205;-44
2022/07/29 01:17:29;;;;;;;2.63;1.20;;;12.80;99.90;;;;;;5104169;28;20266;-46
2022/07/29 01:20:02;;;;;;;1.97;1.40;;;12.80;99.90;;;;;;5114116;28;20219;-46
2022/07/29 01:22:37;;;;;;;2.03;1.30;;;12.70;99.90;;;;;;5103470;28;20203;-44
2022/07/29 01:25:24;;;;;;;2.27;1.37;;;12.70;99.90;;;;;;5098871;28;20200;-45
2022/07/29 01:28:08;;;;;;;4.43;1.40;;;12.70;99.90;;;;;;5093362;28;20225;-45
2022/07/29 01:30:39;;;;;;;3.50;1.33;;;12.70;99.90;;;;;;5106715;28;20185;-49
2022/07/29 01:33:10;;;;;;;2.33;1.40;;;12.70;99.90;;;;;;5099670;28;20197;-46
2022/07/29 01:35:41;;;;;;;2.90;1.30;;;12.70;99.90;;;;;;5103426;28;20276;-48
2022/07/29 01:38:13;;;;;;;3.67;1.43;;;12.70;99.90;;;;;;5108585;28;20207;-44
2022/07/29 01:40:45;;;;;;;1.40;1.27;;;12.70;99.90;;;;;;5104385;28;20697;-44
2022/07/29 01:43:16;;;;;;;3.70;1.50;;;12.70;99.90;;;;;;5088020;28;20217;-44
2022/07/29 01:45:51;;;;;;;2.33;1.50;;;12.70;99.90;;;;;;5113600;28;20204;-44
2022/07/29 01:48:22;;;;;;;3.63;1.63;;;12.70;99.90;;;;;;5107298;27;20205;-44
2022/07/29 01:50:52;;;;;;;2.20;1.27;;;12.70;99.90;;;;;;5102480;28;20198;-46
2022/07/29 01:53:30;;;;;;;2.13;1.10;;;12.70;99.90;;;;;;5099336;28;20840;-45
2022/07/29 01:55:59;;;;;;;2.13;1.37;;;12.70;99.90;;;;;;5100633;28;20194;-45
2022/07/29 01:58:27;;;;;;;1.60;1.40;;;12.60;99.90;;;;;;5093446;28;20208;-44
2022/07/29 02:00:58;;;;;;;2.33;1.60;;;12.60;99.90;;;;;;5112755;28;20593;-46
2022/07/29 02:03:26;;;;;;;3.47;1.03;;;12.60;99.90;;;;;;5102092;28;20193;-45
2022/07/29 02:05:54;;;;;;;2.77;2.10;;;12.60;99.90;;;;;;5101443;28;20208;-44
2022/07/29 02:08:22;;;;;;;7.67;1.83;;;12.60;99.90;;;;;;5108295;28;20322;-44
2022/07/29 02:10:50;;;;;;;2.60;1.50;;;12.60;99.90;;;;;;5106820;28;20198;-44
2022/07/29 02:13:19;;;;;;;5.73;1.83;;;12.60;99.90;;;;;;5100725;28;20185;-44
2022/07/29 02:15:47;;;;;;;1.93;1.50;;;12.60;99.90;;;;;;5097650;27;20213;-46
2022/07/29 02:18:19;;;;;;;5.03;1.90;;;12.60;99.90;;;;;;5109737;27;20246;-44
2022/07/29 02:20:49;;;;;;;5.47;1.57;;;12.60;99.90;;;;;;5126386;27;20222;-46
2022/07/29 02:23:21;;;;;;;3.80;1.60;;;12.60;99.90;;;;;;5115825;27;20203;-44
2022/07/29 02:25:49;;;;;;;2.30;1.53;;;12.60;99.90;;;;;;5125479;27;20196;-45
2022/07/29 02:28:18;;;;;;;2.73;1.70;;;12.60;99.90;;;;;;5123416;27;20971;-44
2022/07/29 02:30:47;;;;;;;2.67;1.37;;;12.60;99.90;;;;;;5110758;27;20602;-47
2022/07/29 02:33:17;;;;;;;3.83;1.50;;;12.60;99.90;;;;;;5116654;27;20203;-44
2022/07/29 02:35:46;;;;;;;6.70;1.60;;;12.60;99.90;;;;;;5106363;27;20209;-44
2022/07/29 02:41:01;;;;;;;6.23;1.67;;;12.60;99.90;;;;;;5104511;27;20205;-44
2022/07/29 02:43:31;;;;;;;3.10;1.77;;;12.60;99.90;;;;;;5106044;27;20211;-44
2022/07/29 02:46:00;;;;;;;3.23;2.03;;;12.70;99.90;;;;;;5097982;27;20197;-45
2022/07/29 02:48:35;;;;;;;3.03;2.00;;;12.70;99.90;;;;;;5112161;27;20270;-47
2022/07/29 02:51:07;;;;;;;4.20;1.90;;;12.70;99.90;;;;;;5102570;27;20200;-48
2022/07/29 02:53:35;;;;;;;3.30;1.70;;;12.60;99.90;;;;;;5105852;27;20197;-46
2022/07/29 02:56:08;;;;;;;2.10;1.90;;;12.70;99.90;;;;;;5102497;27;20680;-45
2022/07/29 02:58:41;;;;;;;2.63;2.03;;;12.70;99.90;;;;;;5119474;27;20216;-47
2022/07/29 03:01:13;;;;;;;3.03;2.17;;;12.70;99.90;;;;;;5089754;27;20220;-44
2022/07/29 03:03:44;;;;;;;2.10;1.60;;;12.70;99.90;;;;;;5110796;27;20200;-44
2022/07/29 03:06:14;;;;;;;2.70;1.60;;;12.70;99.90;;;;;;5112063;27;20383;-43
2022/07/29 03:08:42;;;;;;;2.73;1.87;;;12.70;99.90;;;;;;5117151;27;20555;-44
2022/07/29 03:11:10;;;;;;;4.60;1.90;;;12.70;99.90;;;;;;5106184;27;20197;-44
2022/07/29 03:13:37;;;;;;;3.73;2.00;;;12.80;99.90;;;;;;5105670;27;20243;-44
2022/07/29 03:16:05;;;;;;;6.07;1.73;;;12.80;99.90;;;;;;5097549;27;20285;-44
2022/07/29 03:18:33;;;;;;;2.73;1.70;;;12.80;99.90;;;;;;5115709;27;20209;-44
2022/07/29 03:21:01;;;;;;;2.67;1.93;;;12.80;99.90;;;;;;5108993;27;20519;-46
2022/07/29 03:23:28;;;;;;;2.40;1.60;;;12.80;99.90;;;;;;5104763;27;20208;-45
2022/07/29 03:25:55;;;;;;;3.70;2.10;;;12.80;99.90;;;;;;5103143;27;20545;-43
2022/07/29 03:28:22;;;;;;;3.23;2.20;;;12.80;99.90;;;;;;5104148;27;20205;-44
2022/07/29 03:30:49;;;;;;;2.07;1.83;;;12.80;99.90;;;;;;5104961;28;20297;-46
2022/07/29 03:33:17;;;;;;;6.17;2.20;;;12.80;99.90;;;;;;5095554;27;20197;-43
2022/07/29 03:35:44;;;;;;;2.20;1.73;;;12.80;99.90;;;;;;5108287;27;20201;-44
2022/07/29 03:38:12;;;;;;;4.87;1.90;;;12.80;99.90;;;;;;5111264;27;20215;-44
2022/07/29 03:40:45;;;;;;;2.23;1.53;;;12.80;99.90;;;;;;5106432;27;20213;-43
2022/07/29 03:43:14;;;;;;;2.37;1.50;;;12.80;99.90;;;;;;5101328;27;20990;-44
2022/07/29 03:45:43;;;;;;;5.30;2.13;;;12.80;99.90;;;;;;5113393;27;20200;-43
2022/07/29 03:48:14;;;;;;;3.10;1.83;;;12.80;99.90;;;;;;5093620;27;20978;-47
2022/07/29 03:50:42;;;;;;;1.70;1.60;;;12.80;99.90;;;;;;5114746;27;20272;-43
2022/07/29 03:53:09;;;;;;;2.67;1.80;;;12.90;99.90;;;;;;5107709;27;20272;-45
2022/07/29 03:55:42;;;;;;;2.13;1.63;;;12.80;99.90;;;;;;5104672;27;20247;-44
2022/07/29 03:58:11;;;;;;;2.40;1.73;;;12.80;99.90;;;;;;5100849;27;20292;-43
2022/07/29 04:00:38;;;;;;;3.70;2.03;;;12.80;99.90;;;;;;5104677;28;20216;-44
2022/07/29 04:03:06;;;;;;;4.77;1.90;;;12.90;99.90;;;;;;5100569;27;20194;-46
2022/07/29 04:05:33;;;;;;;2.87;1.93;;;12.80;99.90;;;;;;5097591;27;20201;-45
2022/07/29 04:08:00;;;;;;;2.63;2.20;;;12.90;99.90;;;;;;5112723;27;20221;-43
2022/07/29 04:10:26;;;;;;;1.97;1.70;;;12.80;99.90;;;;;;5111957;27;20289;-43
2022/07/29 04:12:55;;;;;;;5.10;1.97;;;12.80;99.90;;;;;;5102708;28;20209;-43
2022/07/29 04:15:21;;;;;;;6.47;2.00;;;12.90;99.90;;;;;;5109508;27;20190;-46
2022/07/29 04:17:49;;;;;;;2.43;1.63;;;12.90;99.90;;;;;;5104688;27;20279;-49
2022/07/29 04:20:15;;;;;;;3.37;2.13;;;12.90;99.90;;;;;;5090786;27;20213;-43
2022/07/29 04:22:43;;;;;;;3.00;2.13;;;12.90;99.90;;;;;;5110447;27;20217;-44
2022/07/29 04:25:10;;;;;;;4.93;2.40;;;12.90;99.90;;;;;;5099852;27;20197;-44
2022/07/29 04:27:59;;;;;;;2.73;2.50;;;12.90;99.90;;;;;;5104653;28;20603;-43
2022/07/29 04:30:25;;;;;;;2.50;1.70;;;13.00;99.90;;;;;;5103411;27;20902;-44
2022/07/29 04:33:14;;;;;;;2.73;1.73;;;13.00;99.90;;;;;;5115374;27;20215;-44
2022/07/29 04:35:41;;;;;;;5.40;1.83;;;13.00;99.90;;;;;;5107136;27;20200;-44
2022/07/29 04:38:08;;;;;;;2.83;1.53;;;13.00;99.90;;;;;;5110125;27;20242;-46
2022/07/29 04:40:35;;;;;;;2.87;1.93;;;13.00;99.90;;;;;;5105112;27;20193;-43
2022/07/29 04:43:02;;;;;;;4.47;2.13;;;13.10;99.90;;;;;;5100593;28;20230;-43
2022/07/29 04:45:31;;;;;;;4.00;1.83;;;13.10;99.90;;;;;;5110569;27;20188;-44
2022/07/29 04:47:57;;;;;;;2.50;2.03;;;13.10;99.90;;;;;;5105888;27;20221;-47
2022/07/29 04:50:24;;;;;;;4.53;1.83;;;13.10;99.90;;;;;;5092433;27;20208;-45
2022/07/29 04:52:51;;;;;;;3.83;1.80;;;13.10;99.90;;;;;;5109158;27;20190;-50
2022/07/29 04:55:18;;;;;;;3.33;2.47;;;13.10;99.90;;;;;;5099905;28;20203;-43
2022/07/29 04:57:45;;;;;;;3.07;1.70;;;13.10;99.90;;;;;;5103955;28;20580;-46
2022/07/29 05:00:13;;;;;;;5.50;2.20;;;13.10;99.90;;;;;;5100448;28;20185;-43
2022/07/29 05:02:41;;;;;;;3.20;2.27;;;13.10;99.90;;;;;;5103963;28;20673;-43
2022/07/29 05:05:08;;;;;;;4.27;1.90;;;13.10;99.90;;;;;;5096972;28;20196;-44
2022/07/29 05:07:35;;;;;;;2.20;2.00;;;13.10;99.90;;;;;;5096610;28;20226;-45
2022/07/29 05:10:03;;;;;;;4.87;1.90;;;13.10;99.90;;;;;;5107587;28;20204;-45
2022/07/29 05:12:29;;;;;;;3.57;2.10;;;13.20;99.90;;;;;;5109811;27;20260;-45
2022/07/29 05:14:56;;;;;;;6.30;1.70;;;13.20;99.90;;;;;;5107473;28;20261;-43
2022/07/29 05:17:23;;;;;;;4.00;2.10;;;13.20;99.90;;;;;;5102926;28;20736;-45
2022/07/29 05:19:51;;;;;;;2.40;2.10;;;13.20;99.90;;;;;;5101981;28;20189;-44
2022/07/29 05:22:19;;;;;;;3.07;1.90;;;13.20;99.90;;;;;;5090865;28;20212;-43
2022/07/29 05:24:46;;;;;;;3.83;1.90;;;13.20;99.90;;;;;;5109808;28;20212;-44
2022/07/29 05:27:13;;;;;;;4.57;2.17;;;13.20;99.90;;;;;;5099208;28;20287;-43
2022/07/29 05:29:40;;;;;;;4.27;2.40;;;13.30;99.90;;;;;;5116987;28;20193;-44
2022/07/29 05:32:07;;;;;;;6.47;2.13;;;13.30;99.90;;;;;;5114175;28;20193;-48
2022/07/29 05:34:34;;;;;;;6.33;2.30;;;13.30;99.90;;;;;;5116342;28;20201;-46
2022/07/29 05:37:02;;;;;;;4.20;1.90;;;13.40;99.90;;;;;;5094711;28;20444;-43
2022/07/29 05:39:28;;;;;;;3.77;2.67;;;13.40;99.90;;;;;;5093920;28;20213;-46
2022/07/29 05:41:55;;;;;;;3.80;2.13;;;13.50;99.90;;;;;;5105658;28;20332;-45
2022/07/29 05:44:22;;;;;;;2.87;1.57;;;13.50;99.90;;;;;;5102755;28;20201;-44
2022/07/29 05:46:49;;;;;;;3.80;2.23;;;13.60;99.90;;;;;;5110327;27;20233;-44
2022/07/29 05:49:16;;;;;;;3.03;2.43;;;13.70;99.90;;;;;;5110772;27;20574;-43
2022/07/29 05:51:43;;;;;;;4.03;2.10;;;13.70;99.90;;;;;;5106014;27;20194;-43
2022/07/29 05:54:11;;;;;;;3.63;1.70;;;13.80;99.90;;;;;;5093970;27;20825;-44
2022/07/29 05:56:38;;;;;;;3.27;2.10;;;13.80;99.90;;;;;;5107903;27;20209;-44
2022/07/29 05:59:04;;;;;;;2.57;2.07;;;13.90;99.90;;;;;;5121983;27;20197;-47
2022/07/29 06:01:31;;;;;;;3.27;1.90;;;14.00;99.90;;;;;;5108206;27;20209;-44
2022/07/29 06:03:58;;;;;;;3.47;2.00;;;14.10;99.90;;;;;;5118559;27;20212;-44
2022/07/29 06:06:25;;;;;;;5.43;1.90;;;14.20;99.90;;;;;;5108859;27;20262;-44
2022/07/29 06:08:52;;;;;;;3.03;2.13;;;14.20;99.90;;;;;;5096735;27;21022;-44
2022/07/29 06:11:20;;;;;;;4.43;1.97;;;14.30;99.90;;;;;;5112562;27;20190;-44
2022/07/29 06:13:47;;;;;;;3.33;2.10;;;14.40;99.90;;;;;;5109325;27;20208;-44
2022/07/29 06:16:14;;;;;;;6.97;1.93;;;14.40;99.90;;;;;;5112167;27;20216;-44
2022/07/29 06:18:40;;;;;;;4.23;2.23;;;14.50;99.90;;;;;;5104106;27;20201;-48
2022/07/29 06:21:10;;;;;;;5.00;2.13;;;14.60;99.90;;;;;;5119351;27;20224;-46
2022/07/29 06:23:38;;;;;;;4.47;2.30;;;14.80;99.90;;;;;;5113817;27;20712;-43
2022/07/29 06:26:05;;;;;;;3.70;1.63;;;14.90;99.90;;;;;;5101048;27;20948;-44
2022/07/29 06:28:33;;;;;;;6.03;1.93;;;15.00;99.90;;;;;;5112356;27;20217;-49
2022/07/29 06:31:00;;;;;;;4.23;1.87;;;15.10;99.90;;;;;;5104903;27;20239;-44
2022/07/29 06:33:27;;;;;;;3.33;2.00;;;15.20;99.90;;;;;;5107373;27;20198;-45
2022/07/29 06:35:54;;;;;;;2.53;1.93;;;15.30;99.90;;;;;;5105214;27;20189;-43
2022/07/29 06:38:21;;;;;;;3.30;1.73;;;15.40;99.90;;;;;;5112701;27;20209;-44
2022/07/29 06:41:00;;;;;;;3.60;1.90;;;15.50;99.90;;;;;;5089806;27;20201;-44
2022/07/29 06:43:31;;;;;;;3.00;1.80;;;15.60;99.90;;;;;;5110361;27;20208;-49
2022/07/29 06:46:01;;;;;;;5.63;1.90;;;15.60;99.90;;;;;;5107142;27;20192;-44
2022/07/29 06:48:29;;;;;;;2.57;1.70;;;15.70;99.90;;;;;;5124980;27;20244;-47
2022/07/29 06:50:56;;;;;;;3.07;2.33;;;15.80;99.90;;;;;;5112414;27;20193;-47
2022/07/29 06:53:23;;;;;;;4.73;2.33;;;16.00;99.90;;;;;;5115912;27;20196;-44
2022/07/29 06:55:50;;;;;;;3.57;2.20;;;16.00;99.90;;;;;;5100666;27;20212;-44
2022/07/29 06:58:19;;;;;;;3.50;1.80;;;16.10;99.90;;;;;;5110238;27;20689;-44
2022/07/29 07:00:55;;;;;;;3.07;1.60;;;16.10;99.90;;;;;;5110047;27;20316;-43
2022/07/29 07:03:24;;;;;;;3.03;1.97;;;16.20;99.90;;;;;;5113955;27;20210;-44
2022/07/29 07:05:52;;;;;;;4.53;2.33;;;16.30;99.90;;;;;;5099229;27;20212;-45
2022/07/29 07:08:20;;;;;;;3.57;1.97;;;16.30;99.90;;;;;;5108839;27;20697;-43
2022/07/29 07:10:47;;;;;;;4.57;2.00;;;16.40;99.90;;;;;;5106854;27;20987;-44
2022/07/29 07:13:16;;;;;;;5.63;1.53;;;16.40;99.90;;;;;;5096623;27;20212;-46
2022/07/29 07:15:44;;;;;;;7.33;2.27;;;16.60;99.90;;;;;;5107334;27;20201;-49
2022/07/29 07:18:11;;;;;;;4.33;2.27;;;16.70;99.90;;;;;;5105338;27;20300;-46
2022/07/29 07:20:39;;;;;;;3.47;2.00;;;16.90;99.90;;;;;;5102930;28;20189;-46
2022/07/29 07:23:06;;;;;;;4.07;1.77;;;17.00;99.90;;;;;;5104202;28;20705;-47
2022/07/29 07:25:34;;;;;;;4.53;1.73;;;17.10;99.90;;;;;;5103462;28;20204;-45
2022/07/29 07:28:01;;;;;;;4.03;1.87;;;17.20;99.90;;;;;;5092529;27;20229;-47
2022/07/29 07:30:28;;;;;;;3.50;1.80;;;17.30;99.90;;;;;;5106371;27;20189;-45
2022/07/29 07:32:55;;;;;;;3.20;1.87;;;17.40;99.90;;;;;;5108541;27;20969;-44
2022/07/29 07:35:22;;;;;;;4.00;1.63;;;17.60;99.90;;;;;;5124496;27;20215;-47
2022/07/29 07:37:51;;;;;;;4.43;1.83;;;17.60;99.90;;;;;;5109414;27;20213;-45
2022/07/29 07:40:17;;;;;;;4.30;1.80;;;17.80;99.90;;;;;;5105284;27;20202;-45
2022/07/29 07:42:44;;;;;;;6.27;1.70;;;17.90;99.90;;;;;;5101425;28;20700;-44
2022/07/29 07:45:12;;;;;;;4.37;1.77;;;18.00;99.90;;;;;;5096294;27;20220;-43
2022/07/29 07:47:39;;;;;;;2.77;1.93;;;18.10;99.90;;;;;;5107704;27;20221;-45
2022/07/29 07:50:09;;;;;;;3.73;1.73;;;18.30;99.90;;;;;;5104186;27;20197;-45
2022/07/29 07:52:46;;;;;;;5.73;1.90;;;18.40;99.90;;;;;;5103178;27;20205;-47
2022/07/29 07:55:14;;;;;;;2.47;2.10;;;18.50;99.90;;;;;;5118383;27;20196;-44
2022/07/29 07:57:41;;;;;;;2.60;1.77;;;18.60;99.90;;;;;;5121377;27;20220;-44
2022/07/29 08:00:09;;;;;;;5.17;1.80;;;18.70;99.90;;;;;;5107929;27;20204;-44
2022/07/29 08:02:39;;;;;;;2.30;1.87;;;18.70;99.90;;;;;;5103493;27;20217;-45
2022/07/29 08:05:07;;;;;;;1.93;1.73;;;18.70;99.90;;;;;;5103187;27;20277;-43
2022/07/29 08:07:34;;;;;;;5.37;2.10;;;18.70;99.90;;;;;;5109513;27;20224;-44
2022/07/29 08:10:01;;;;;;;4.17;1.87;;;18.70;99.90;;;;;;5110182;27;20181;-49
2022/07/29 08:12:30;;;;;;;3.77;1.80;;;18.80;99.90;;;;;;5103277;28;20673;-45
2022/07/29 08:14:56;;;;;;;4.83;1.90;;;18.90;99.90;;;;;;5105101;27;20193;-44
2022/07/29 08:17:23;;;;;;;2.30;2.10;;;19.00;99.90;;;;;;5101785;27;20715;-45
2022/07/29 08:19:50;;;;;;;3.40;1.83;;;19.00;99.90;;;;;;5105554;27;20437;-44
2022/07/29 08:22:17;;;;;;;5.70;1.50;;;19.10;99.90;;;;;;5104602;28;20689;-44
2022/07/29 08:24:45;;;;;;;3.83;1.67;;;19.20;99.90;;;;;;5100432;27;20201;-45
2022/07/29 08:27:13;;;;;;;2.37;1.67;;;19.20;99.90;;;;;;5104444;27;20225;-46
2022/07/29 08:29:41;;;;;;;4.67;1.70;;;19.20;99.90;;;;;;5101514;27;20205;-44
2022/07/29 08:32:08;;;;;;;4.77;1.70;;;19.30;99.90;;;;;;5097932;27;20212;-44
2022/07/29 08:34:35;;;;;;;1.97;1.70;;;19.30;99.90;;;;;;5104084;27;20200;-45
2022/07/29 08:37:02;;;;;;;3.67;2.07;;;19.40;99.90;;;;;;5108636;27;20204;-44
2022/07/29 08:39:28;;;;;;;1.87;1.77;;;19.40;99.90;;;;;;5104899;27;20203;-44
2022/07/29 08:41:55;;;;;;;4.03;2.07;;;19.70;99.90;;;;;;5100400;27;20956;-44
2022/07/29 08:44:22;;;;;;;3.67;1.60;;;19.80;99.90;;;;;;5123541;27;20200;-44
2022/07/29 08:46:50;;;;;;;5.30;1.80;;;20.00;99.90;;;;;;5097331;27;20387;-45
2022/07/29 08:49:18;;;;;;;3.23;1.80;;;20.10;99.90;;;;;;5115812;27;20554;-45
2022/07/29 08:51:45;;;;;;;4.10;1.67;;;20.10;99.90;;;;;;5103997;27;20232;-47
2022/07/29 08:54:17;;;;;;;4.07;2.60;;;20.10;99.90;;;;;;5103965;27;20197;-47
2022/07/29 08:56:45;;;;;;;3.10;2.00;;;20.20;99.90;;;;;;5113350;27;20716;-44
2022/07/29 08:59:13;;;;;;;4.47;1.77;;;20.20;99.90;;;;;;5104130;28;20286;-46
2022/07/29 09:01:42;;;;;;;2.60;1.80;;;20.40;99.90;;;;;;5101218;28;20548;-45
2022/07/29 09:04:13;;;;;;;3.23;1.73;;;20.50;99.90;;;;;;5101037;28;20699;-46
2022/07/29 09:06:47;;;;;;;3.40;1.60;;;20.60;99.90;;;;;;5103836;28;20330;-44
2022/07/29 09:09:14;;;;;;;4.70;1.90;;;20.60;99.90;;;;;;5116969;27;20564;-44
2022/07/29 09:11:41;;;;;;;3.27;1.77;;;20.70;99.90;;;;;;5101124;28;20258;-45
2022/07/29 09:14:09;;;;;;;3.37;1.73;;;20.90;99.90;;;;;;5105506;28;20556;-44
2022/07/29 09:16:47;;;;;;;4.43;1.40;;;21.00;99.90;;;;;;5109666;28;20216;-45
2022/07/29 09:19:23;;;;;;;1.50;1.40;;;21.10;99.90;;;;;;5096031;28;20212;-44
2022/07/29 09:21:59;;;;;;;5.03;1.87;;;21.10;99.90;;;;;;5106144;28;20189;-46
2022/07/29 09:24:28;;;;;;;4.03;1.90;;;21.30;99.90;;;;;;5105045;28;20279;-45
2022/07/29 09:26:55;;;;;;;3.90;2.03;;;21.30;99.90;;;;;;5104329;27;20449;-44
2022/07/29 09:29:24;;;;;;;6.57;1.90;;;21.30;99.80;;;;;;5107743;27;20197;-45
2022/07/29 09:31:52;;;;;;;4.60;1.93;;;21.40;99.50;;;;;;5103920;28;20193;-44
2022/07/29 09:34:25;;;;;;;1.77;1.50;;;21.40;99.30;;;;;;5095841;27;20212;-45
2022/07/29 09:36:54;;;;;;;5.10;1.43;;;21.60;99.00;;;;;;5116845;27;20938;-44
2022/07/29 09:39:32;;;;;;;4.17;1.70;;;21.70;98.70;;;;;;5109568;27;20272;-44
2022/07/29 09:42:01;;;;;;;2.00;1.40;;;21.90;97.50;;;;;;5104740;27;20200;-45
2022/07/29 09:44:41;;;;;;;3.60;1.20;;;22.10;97.00;;;;;;5113002;27;20223;-46
2022/07/29 09:47:08;;;;;;;2.53;1.63;;;22.10;96.00;;;;;;5110147;27;20308;-44
2022/07/29 09:49:50;;;;;;;3.90;1.73;;;22.10;95.80;;;;;;5097995;27;20287;-47
2022/07/29 09:52:17;;;;;;;4.30;1.50;;;22.10;95.80;;;;;;5110985;27;20209;-46
2022/07/29 09:54:44;;;;;;;1.90;1.50;;;22.00;99.90;;;;;;5103348;27;20205;-51
2022/07/29 09:57:23;;;;;;;5.73;1.60;;;22.00;99.90;;;;;;5106948;27;20217;-48
2022/07/29 09:59:57;;;;;;;2.92;1.60;;;22.00;99.90;;;;;;5103589;28;20189;-47
2022/07/29 10:02:29;;;;;;;2.92;1.38;;;22.10;99.90;;;;;;5106988;28;20193;-46
2022/07/29 10:04:58;;;;;;;3.72;1.45;;;22.20;95.20;;;;;;5103539;27;20205;-50
2022/07/29 10:07:25;;;;;;;2.93;1.30;;;22.30;95.30;;;;;;5113912;27;20213;-47
2022/07/29 10:09:55;;;;;;;3.17;1.40;;;22.40;95.00;;;;;;5111411;27;20189;-48
2022/07/29 10:12:23;;;;;;;2.53;1.45;;;22.40;94.70;;;;;;5107000;27;20193;-47
2022/07/29 10:14:51;;;;;;;2.45;1.48;;;22.50;94.90;;;;;;5107010;27;20199;-46
2022/07/29 10:17:19;;;;;;;2.97;1.73;;;22.60;94.00;;;;;;5120256;27;20220;-50
2022/07/29 10:19:46;;;;;;;2.08;1.38;;;22.60;94.00;;;;;;5090788;27;20201;-50
2022/07/29 10:22:14;;;;;;;2.85;1.67;;;22.70;93.50;;;;;;5117320;27;20188;-46
2022/07/29 10:24:41;;;;;;;1.92;1.50;;;22.80;93.30;;;;;;5105040;27;20693;-45
2022/07/29 10:27:09;;;;;;;3.13;1.35;;;22.90;93.30;;;;;;5105911;28;20229;-46
2022/07/29 10:29:36;;;;;;;2.25;1.05;;;23.10;92.90;;;;;;5104789;27;20564;-50
2022/07/29 10:32:17;;;;;;;1.83;1.20;;;23.10;92.60;;;;;;5104709;28;20185;-43
2022/07/29 10:35:07;;;;;;;3.05;1.40;;;23.10;92.30;;;;;;5102286;27;20204;-46
2022/07/29 10:37:52;;;;;;;4.55;1.20;;;23.20;92.00;;;;;;5099392;27;20225;-45
2022/07/29 10:43:22;;;;;;;3.00;1.48;;;23.20;89.80;;;;;;5123459;27;20722;-43
2022/07/29 10:45:55;;;;;;;4.53;1.20;;;23.30;89.50;;;;;;5116099;27;20197;-46
2022/07/29 10:48:23;;;;;;;2.85;1.38;;;23.30;90.00;;;;;;5110306;27;20303;-46
2022/07/29 10:50:55;;;;;;;4.78;1.35;;;23.30;89.50;;;;;;5102505;27;20213;-46
2022/07/29 10:53:24;;;;;;;3.90;1.40;;;23.30;87.60;;;;;;5099736;27;20203;-46
2022/07/29 10:55:52;;;;;;;1.65;1.10;;;23.30;89.90;;;;;;5110552;27;20884;-44
2022/07/29 10:58:21;;;;;;;3.47;1.17;;;23.30;90.00;;;;;;5106109;27;20217;-45
2022/07/29 11:00:50;;;;;;;3.47;1.08;;;23.20;89.90;;;;;;5102277;27;20200;-45
2022/07/29 11:03:49;;;;;;;1.80;1.20;;;23.20;89.30;;;;;;5105352;27;20575;-43
2022/07/29 11:06:17;;;;;;;1.65;1.17;;;23.20;88.20;;;;;;5075581;27;20217;-47
2022/07/29 11:08:45;;;;;;;5.13;1.10;;;23.10;89.60;;;;;;5100286;27;20201;-47
2022/07/29 11:11:38;;;;;;;7.00;1.95;;;23.10;90.10;;;;;;5109638;27;20554;-46
2022/07/29 11:14:05;;;;;;;5.75;2.00;;;23.20;87.80;;;;;;5107107;27;20189;-48
2022/07/29 11:17:04;;;;;;;1.27;1.13;;;23.20;88.10;;;;;;5112728;27;20626;-45
2022/07/29 11:19:31;;;;;;;3.90;1.27;;;23.20;88.00;;;;;;5104890;27;20204;-46
2022/07/29 11:21:59;;;;;;;1.70;1.17;;;23.30;88.60;;;;;;5102916;27;20188;-46
2022/07/29 11:24:30;;;;;;;4.97;1.20;;;23.30;86.90;;;;;;5093626;27;20686;-47
2022/07/29 11:27:11;;;;;;;2.67;1.42;;;23.40;86.60;;;;;;5110020;27;20216;-43
2022/07/29 11:29:41;;;;;;;6.85;1.77;;;23.50;86.80;;;;;;5103441;27;20197;-48
2022/07/29 11:32:10;;;;;;;5.00;1.38;;;23.50;86.70;;;;;;5104980;27;20254;-44
2022/07/29 11:34:40;;;;;;;7.60;2.15;;;23.50;88.00;;;;;;5103035;27;20197;-44
2022/07/29 11:37:22;;;;;;;7.72;1.65;;;23.50;87.00;;;;;;5104595;27;20224;-44
2022/07/29 11:40:10;;;;;;;2.58;1.67;;;23.60;85.60;;;;;;5097024;27;20228;-44
2022/07/29 11:42:46;;;;;;;3.35;1.23;;;23.70;85.60;;;;;;5108952;27;20205;-45
2022/07/29 11:45:16;;;;;;;4.18;1.40;;;24.00;86.20;;;;;;5115829;27;20230;-45
2022/07/29 11:47:50;;;;;;;3.20;1.02;;;24.10;84.80;;;;;;5104836;27;20244;-44
2022/07/29 11:50:26;;;;;;;3.83;1.50;;;24.30;84.00;;;;;;5105457;27;20280;-44
2022/07/29 11:52:53;;;;;;;2.13;1.27;;;24.40;84.10;;;;;;5101338;27;20189;-44
2022/07/29 11:55:24;;;;;;;4.13;1.38;;;24.50;84.40;;;;;;5094615;27;20231;-44
2022/07/29 11:57:52;;;;;;;1.30;1.10;;;24.60;84.30;;;;;;5104008;27;20213;-44
2022/07/29 12:00:25;;;;;;;3.70;1.08;;;24.70;82.90;;;;;;5109119;27;20197;-44
2022/07/29 12:02:52;;;;;;;2.72;1.05;;;24.90;81.30;;;;;;5100820;27;20186;-46
2022/07/29 12:05:20;;;;;;;2.70;1.08;;;25.00;78.90;;;;;;5104553;27;20276;-46
2022/07/29 12:07:48;;;;;;;3.65;1.42;;;25.20;76.50;;;;;;5101413;27;20217;-44
2022/07/29 12:10:16;;;;;;;1.25;1.05;;;25.10;74.00;;;;;;5099651;27;20201;-46
2022/07/29 12:12:52;;;;;;;3.22;1.17;;;25.00;73.30;;;;;;5106967;27;20201;-46
2022/07/29 12:15:20;;;;;;;1.55;1.10;;;25.10;72.20;;;;;;5110438;27;20193;-45
2022/07/29 12:17:48;;;;;;;4.20;1.25;;;24.90;72.80;;;;;;5107322;27;20213;-45
2022/07/29 12:20:24;;;;;;;2.50;1.10;;;25.00;74.30;;;;;;5104704;27;20197;-47
2022/07/29 12:22:53;;;;;;;3.60;1.75;;;24.90;74.70;;;;;;5100521;27;20193;-46
2022/07/29 12:25:21;;;;;;;2.85;1.17;;;24.90;72.80;;;;;;5104216;28;20221;-44
2022/07/29 12:27:59;;;;;;;2.47;1.38;;;24.90;72.20;;;;;;5097087;27;20232;-44
2022/07/29 12:30:38;;;;;;;3.85;1.10;;;24.90;72.00;;;;;;5105521;27;20200;-44
2022/07/29 12:33:12;;;;;;;3.15;1.10;;;24.90;70.80;;;;;;5102396;28;20224;-44
2022/07/29 12:35:40;;;;;;;3.60;1.48;;;24.90;72.10;;;;;;5101671;28;20222;-45
2022/07/29 12:38:07;;;;;;;4.10;1.60;;;24.90;73.20;;;;;;5104431;27;20259;-45
2022/07/29 12:40:34;;;;;;;5.03;1.67;;;25.10;71.10;;;;;;5108941;27;20197;-45
2022/07/29 12:43:10;;;;;;;1.38;1.27;;;25.30;70.20;;;;;;5100238;27;20196;-47
2022/07/29 12:45:37;;;;;;;3.78;1.30;;;25.50;70.90;;;;;;5112567;27;20645;-46
2022/07/29 12:48:05;;;;;;;2.83;1.35;;;25.60;70.80;;;;;;5105636;27;20235;-44
2022/07/29 12:50:32;;;;;;;4.07;1.30;;;25.80;69.00;;;;;;5103033;28;20197;-44
2022/07/29 12:53:13;;;;;;;2.30;1.45;;;25.90;69.50;;;;;;5101324;28;20201;-44
2022/07/29 12:55:42;;;;;;;3.85;1.20;;;26.10;71.00;;;;;;5101281;27;20205;-45
2022/07/29 12:58:11;;;;;;;3.40;1.40;;;26.40;72.30;;;;;;5099687;27;20301;-44
2022/07/29 13:00:38;;;;;;;3.72;1.48;;;26.60;71.50;;;;;;5107610;27;20193;-48
2022/07/29 13:03:05;;;;;;;3.10;1.38;;;26.90;71.70;;;;;;5102548;28;20220;-44
2022/07/29 13:05:43;;;;;;;3.55;1.70;;;27.10;71.50;;;;;;5102403;28;20217;-47
2022/07/29 13:08:12;;;;;;;2.05;1.50;;;27.20;70.60;;;;;;5121873;27;20310;-44